Huvudsida
METAR-TAF:

METAR-TAF

Flygplatser :

Al Ain International Airport

Al Ain, Förenade Arabemiraten

latitud: 24-16N, longitud: 055-36E, höjd: 265 m

Aktuellt väderrapport

Denna rapport gjordes för 21 minuter sedan, klockan 14:00 UTC
Vind 4 kt från syd/sydväst, varierande mellan syd/sydost och väst/sydväst
Temperatur 46°C
Fuktighet 12%
Tryck 1000 hPa
Sikt 10 km eller mer
Få moln på en höjd av 4500 ft

METAR: OMAL 251400Z 20004KT 160V240 9999 FEW045 46/10 Q1000 NOSIG

Tid: 18:21 (14:21 UTC)

Väderprognos

Denna rapport gjordes för 3 timmar och 21 minuter sedan, klockan 11:00 UTC
Prognos gäller från 25 kl. 12 UTC till 26 kl. 18 UTC
Vind 8 kt från syd
Sikt: 8000 m
Blir
från 25 kl. 12 UTC till 25 kl. 14 UTC
Vind 8 kt från ost

TAF: OMAL 251100Z 2512/2618 19008KT 8000 NSC BECMG 2512/2514 09008KT

Aktuella väderrapporter och prognoser från 4000 flygplatser (METAR- och TAF-rapporter).

De tillgängliga stationerna syns som gula och röda prickar på kartan.

För musen över prickarna för att se namnen på stationerna.

Klicka sedan för att få väderrapporter och prognoser.

För att ändra kartan: Klicka på de gröna knapparna med ett svart kors på för att zooma in; den gröna knappen med ett streck på för att zooma ut; eller på de gröna pilarna för angränsande kartor.


METAR-TAF: